Time;durP1;ratioP1;P1;durP2;ratioP2;P2;SDS_P1;SDS_P2;PMS_P1;PMS_P2;Temp;Humidity;BMP_temperature;BMP_pressure;BME280_temperature;BME280_humidity;BME280_pressure;Samples;Min_cycle;Max_cycle;Signal;HPM_P1;HPM_P2
2023/03/13 00:00:20;;;;;;;32.83;5.90;;;9.60;99.90;;;;;;5102392;28;20558;-75
2023/03/13 00:02:46;;;;;;;35.90;5.55;;;9.70;99.90;;;;;;5094234;28;20193;-75
2023/03/13 00:05:12;;;;;;;38.20;6.15;;;9.70;99.90;;;;;;5112964;28;20239;-75
2023/03/13 00:07:38;;;;;;;30.92;5.53;;;9.70;99.90;;;;;;5115932;27;20181;-75
2023/03/13 00:10:05;;;;;;;34.85;5.85;;;9.70;99.90;;;;;;5095168;28;20205;-75
2023/03/13 00:12:31;;;;;;;35.75;5.75;;;9.70;99.90;;;;;;5120030;27;20193;-74
2023/03/13 00:14:56;;;;;;;44.15;6.28;;;9.70;99.90;;;;;;5111316;28;20181;-74
2023/03/13 00:17:23;;;;;;;33.15;6.07;;;9.70;99.90;;;;;;5062972;28;20292;-74
2023/03/13 00:19:50;;;;;;;37.83;6.35;;;9.70;99.90;;;;;;5114069;28;20173;-74
2023/03/13 00:22:15;;;;;;;33.17;6.57;;;9.70;99.90;;;;;;5107726;27;20192;-73
2023/03/13 00:24:41;;;;;;;34.67;6.15;;;9.70;99.90;;;;;;5123761;27;20524;-74
2023/03/13 00:27:07;;;;;;;28.98;5.60;;;9.70;99.90;;;;;;5083700;28;20178;-74
2023/03/13 00:29:33;;;;;;;38.45;6.07;;;9.70;99.90;;;;;;5095146;28;20180;-75
2023/03/13 00:32:00;;;;;;;43.65;6.57;;;9.70;99.90;;;;;;5123438;27;20181;-75
2023/03/13 00:34:26;;;;;;;32.67;6.63;;;9.70;99.90;;;;;;5104536;28;20192;-74
2023/03/13 00:36:53;;;;;;;38.30;6.40;;;9.70;99.90;;;;;;5097914;28;20192;-75
2023/03/13 00:39:19;;;;;;;30.30;6.15;;;9.70;99.90;;;;;;5108179;27;20237;-75
2023/03/13 00:41:45;;;;;;;32.15;6.10;;;9.70;99.90;;;;;;5131020;27;20176;-75
2023/03/13 00:44:11;;;;;;;34.33;6.55;;;9.70;99.90;;;;;;5116031;27;20199;-76
2023/03/13 00:46:37;;;;;;;36.70;7.32;;;9.70;99.90;;;;;;5112947;27;20209;-75
2023/03/13 00:49:03;;;;;;;40.55;6.82;;;9.70;99.90;;;;;;5102601;28;20189;-76
2023/03/13 00:51:29;;;;;;;30.60;6.13;;;9.60;99.90;;;;;;5093609;28;20682;-75
2023/03/13 00:53:59;;;;;;;37.22;6.93;;;9.60;99.90;;;;;;5095269;28;20272;-75
2023/03/13 00:56:25;;;;;;;33.97;6.72;;;9.60;99.90;;;;;;5093492;28;20237;-75
2023/03/13 00:58:51;;;;;;;46.92;6.75;;;9.60;99.90;;;;;;5073138;28;20214;-75
2023/03/13 01:01:26;;;;;;;31.75;7.63;;;9.60;99.90;;;;;;5082779;28;20235;-75
2023/03/13 01:03:56;;;;;;;28.58;6.25;;;9.60;99.90;;;;;;5092656;28;20621;-74
2023/03/13 01:06:25;;;;;;;39.65;6.53;;;9.60;99.90;;;;;;5064487;28;20174;-75
2023/03/13 01:08:51;;;;;;;28.90;6.38;;;9.60;99.90;;;;;;5093998;28;20602;-77
2023/03/13 01:11:23;;;;;;;32.17;7.05;;;9.60;99.90;;;;;;5099443;27;20196;-76
2023/03/13 01:13:53;;;;;;;30.98;6.95;;;9.60;99.90;;;;;;5096010;28;20595;-74
2023/03/13 01:16:20;;;;;;;30.08;6.60;;;9.60;99.90;;;;;;5109578;28;20177;-75
2023/03/13 01:18:52;;;;;;;36.97;7.10;;;9.60;99.90;;;;;;5094612;28;20185;-75
2023/03/13 01:21:19;;;;;;;42.33;7.32;;;9.60;99.90;;;;;;5123450;27;20188;-74
2023/03/13 01:23:45;;;;;;;36.20;7.40;;;9.60;99.90;;;;;;5120297;27;20220;-74
2023/03/13 01:26:11;;;;;;;32.42;7.07;;;9.60;99.90;;;;;;5094361;28;20621;-74
2023/03/13 01:28:38;;;;;;;35.00;6.22;;;9.70;99.90;;;;;;5077732;28;20188;-74
2023/03/13 01:31:18;;;;;;;31.10;6.43;;;9.70;99.90;;;;;;5111540;28;20300;-74
2023/03/13 01:33:44;;;;;;;35.22;6.47;;;9.60;99.90;;;;;;5110484;28;20239;-74
2023/03/13 01:36:11;;;;;;;29.90;6.68;;;9.60;99.90;;;;;;5112447;27;20184;-74
2023/03/13 01:38:37;;;;;;;41.15;6.55;;;9.60;99.90;;;;;;5109163;28;20625;-74
2023/03/13 01:41:05;;;;;;;37.83;7.00;;;9.60;99.90;;;;;;5092581;28;20201;-78
2023/03/13 01:43:33;;;;;;;36.97;6.38;;;9.60;99.90;;;;;;5112774;28;20181;-74
2023/03/13 01:46:19;;;;;;;29.58;6.60;;;9.60;99.90;;;;;;5092287;28;20185;-74
2023/03/13 01:49:34;;;;;;;28.25;6.55;;;9.60;99.90;;;;;;5066204;28;20236;-74
2023/03/13 01:52:29;;;;;;;25.45;6.38;;;9.60;99.90;;;;;;5123318;28;20189;-75
2023/03/13 01:55:10;;;;;;;36.63;6.35;;;9.60;99.90;;;;;;5103693;28;20272;-74
2023/03/13 01:57:51;;;;;;;30.55;6.30;;;9.60;99.90;;;;;;5110084;28;20631;-74
2023/03/13 02:00:24;;;;;;;31.92;7.30;;;9.60;99.90;;;;;;5130977;28;20640;-74
2023/03/13 02:02:54;;;;;;;31.73;6.72;;;9.70;99.90;;;;;;5097608;27;20534;-75
2023/03/13 02:05:24;;;;;;;31.13;6.00;;;9.70;99.90;;;;;;5097490;28;20177;-77
2023/03/13 02:07:55;;;;;;;33.80;6.57;;;9.70;99.90;;;;;;5097448;28;20208;-74
2023/03/13 02:10:23;;;;;;;26.55;5.85;;;9.70;99.90;;;;;;5115628;28;20288;-74
2023/03/13 02:12:50;;;;;;;34.65;6.90;;;9.60;99.90;;;;;;5114040;27;20192;-74
2023/03/13 02:15:22;;;;;;;35.70;6.55;;;9.60;99.90;;;;;;5112156;27;20208;-74
2023/03/13 02:17:49;;;;;;;36.00;6.40;;;9.60;99.90;;;;;;5114434;28;20192;-74
2023/03/13 02:20:20;;;;;;;36.60;6.75;;;9.60;99.90;;;;;;5098429;28;20181;-75
2023/03/13 02:23:13;;;;;;;37.35;6.85;;;9.60;99.90;;;;;;5115037;28;20268;-75
2023/03/13 02:25:45;;;;;;;31.73;6.30;;;9.60;99.90;;;;;;5081503;27;20176;-75
2023/03/13 02:28:16;;;;;;;30.25;6.57;;;9.60;99.90;;;;;;5096492;28;20173;-80
2023/03/13 02:30:44;;;;;;;25.55;6.28;;;9.60;99.90;;;;;;5095675;28;20215;-74
2023/03/13 02:33:11;;;;;;;35.45;6.65;;;9.60;99.90;;;;;;5108434;28;20208;-74
2023/03/13 02:35:37;;;;;;;27.05;7.05;;;9.60;99.90;;;;;;5096058;28;20629;-74
2023/03/13 02:38:11;;;;;;;31.50;7.13;;;9.60;99.90;;;;;;5093968;28;20189;-74
2023/03/13 02:40:41;;;;;;;34.80;7.03;;;9.60;99.90;;;;;;5095776;28;20184;-74
2023/03/13 02:43:15;;;;;;;33.13;6.30;;;9.60;99.90;;;;;;5077711;28;20169;-74
2023/03/13 02:45:41;;;;;;;27.50;7.10;;;9.60;99.90;;;;;;5078462;28;20170;-75
2023/03/13 02:48:09;;;;;;;22.60;5.93;;;9.60;99.90;;;;;;5067267;28;20196;-74
2023/03/13 02:50:36;;;;;;;24.08;5.82;;;9.60;99.90;;;;;;5077045;28;20511;-78
2023/03/13 02:53:06;;;;;;;21.17;6.13;;;9.60;99.90;;;;;;5097286;28;20181;-74
2023/03/13 02:55:39;;;;;;;21.55;6.00;;;9.60;99.90;;;;;;5079460;28;20176;-75
2023/03/13 02:58:06;;;;;;;20.73;5.30;;;9.60;99.90;;;;;;5086657;28;20684;-74
2023/03/13 03:00:35;;;;;;;14.63;5.00;;;9.60;99.90;;;;;;5094842;28;20652;-75
2023/03/13 03:03:00;;;;;;;21.05;5.70;;;9.60;99.90;;;;;;5063262;28;20189;-74
2023/03/13 03:05:27;;;;;;;20.55;5.45;;;9.70;99.90;;;;;;5114555;28;20181;-78
2023/03/13 03:07:52;;;;;;;16.05;4.93;;;9.70;99.90;;;;;;5121848;27;20192;-74
2023/03/13 03:10:18;;;;;;;15.23;4.97;;;9.70;99.90;;;;;;5096512;28;20209;-74
2023/03/13 03:12:45;;;;;;;13.20;4.50;;;9.70;99.90;;;;;;5096693;28;20189;-76
2023/03/13 03:15:11;;;;;;;19.73;4.63;;;9.70;99.90;;;;;;5105064;27;20189;-75
2023/03/13 03:17:41;;;;;;;9.63;4.65;;;9.70;99.90;;;;;;5082676;27;20265;-76
2023/03/13 03:20:10;;;;;;;10.32;4.30;;;9.80;99.90;;;;;;5095389;28;20224;-75
2023/03/13 03:22:39;;;;;;;11.32;4.55;;;9.80;99.90;;;;;;5096178;28;20192;-75
2023/03/13 03:25:06;;;;;;;13.20;4.18;;;9.80;99.90;;;;;;5097115;28;20181;-74
2023/03/13 03:27:32;;;;;;;10.48;4.10;;;9.80;99.90;;;;;;5095993;28;20200;-75
2023/03/13 03:29:58;;;;;;;9.77;4.32;;;9.80;99.90;;;;;;5074826;28;20209;-74
2023/03/13 03:32:24;;;;;;;9.85;3.63;;;9.80;99.90;;;;;;5086022;28;20274;-74
2023/03/13 03:34:49;;;;;;;8.20;3.50;;;9.80;99.90;;;;;;5076749;28;20653;-74
2023/03/13 03:37:15;;;;;;;7.07;3.80;;;9.80;99.90;;;;;;5089676;28;20182;-74
2023/03/13 03:39:41;;;;;;;9.45;4.40;;;9.90;99.90;;;;;;5075868;28;20177;-74
2023/03/13 03:42:08;;;;;;;7.70;4.00;;;9.90;99.90;;;;;;5089782;28;20195;-75
2023/03/13 03:44:34;;;;;;;8.82;4.00;;;9.90;99.90;;;;;;5085246;27;20180;-73
2023/03/13 03:47:00;;;;;;;9.65;3.70;;;9.90;99.90;;;;;;5114733;27;20184;-74
2023/03/13 03:49:30;;;;;;;9.45;4.03;;;9.90;99.90;;;;;;5101466;28;20177;-75
2023/03/13 03:51:56;;;;;;;12.02;4.28;;;9.90;99.90;;;;;;5078291;28;20193;-73
2023/03/13 03:54:28;;;;;;;9.30;4.05;;;9.90;99.90;;;;;;5111115;27;20196;-74
2023/03/13 03:56:54;;;;;;;9.30;4.07;;;9.90;99.90;;;;;;5077260;28;20242;-78
2023/03/13 03:59:20;;;;;;;8.57;4.07;;;9.90;99.90;;;;;;5076021;28;20188;-75
2023/03/13 04:01:47;;;;;;;8.23;3.83;;;10.00;99.90;;;;;;5104297;28;20193;-74
2023/03/13 04:04:17;;;;;;;6.53;3.63;;;10.00;99.90;;;;;;5096600;28;20204;-74
2023/03/13 04:06:47;;;;;;;5.40;3.65;;;10.00;99.90;;;;;;5099654;28;20189;-75
2023/03/13 04:09:13;;;;;;;4.90;3.63;;;10.00;99.90;;;;;;5113676;28;20169;-74
2023/03/13 04:11:38;;;;;;;4.30;2.90;;;10.00;99.90;;;;;;5112581;28;20209;-74
2023/03/13 04:14:05;;;;;;;4.15;2.78;;;10.00;99.90;;;;;;5096405;28;20185;-74
2023/03/13 04:16:31;;;;;;;5.88;3.28;;;10.00;99.90;;;;;;5080018;28;20542;-74
2023/03/13 04:18:58;;;;;;;6.15;3.10;;;10.10;99.90;;;;;;5087165;27;20195;-75
2023/03/13 04:21:25;;;;;;;6.72;3.63;;;10.10;99.90;;;;;;5095447;28;20200;-74
2023/03/13 04:23:57;;;;;;;5.57;3.60;;;10.10;99.90;;;;;;5099102;27;20184;-74
2023/03/13 04:26:23;;;;;;;4.65;3.42;;;10.20;99.90;;;;;;5118210;27;20575;-76
2023/03/13 04:28:51;;;;;;;4.43;3.65;;;10.20;99.90;;;;;;5099375;27;20176;-74
2023/03/13 04:31:26;;;;;;;6.05;3.83;;;10.20;99.90;;;;;;5091276;28;20209;-74
2023/03/13 04:34:04;;;;;;;5.63;4.20;;;10.30;99.90;;;;;;5065277;28;20174;-74
2023/03/13 04:36:56;;;;;;;8.65;5.10;;;10.30;99.90;;;;;;5092034;27;20192;-74
2023/03/13 04:39:50;;;;;;;9.30;6.30;;;10.40;99.90;;;;;;5095608;27;20348;-75
2023/03/13 04:42:34;;;;;;;8.40;5.95;;;10.40;99.90;;;;;;5088079;28;20264;-74
2023/03/13 04:45:09;;;;;;;7.47;5.80;;;10.50;99.90;;;;;;5113798;28;20177;-74
2023/03/13 04:47:47;;;;;;;10.38;6.80;;;10.50;99.90;;;;;;5100080;27;20185;-74
2023/03/13 04:50:31;;;;;;;9.70;6.72;;;10.50;99.90;;;;;;5101745;27;20311;-76
2023/03/13 04:53:18;;;;;;;10.25;7.13;;;10.60;99.90;;;;;;5082899;27;20200;-74
2023/03/13 04:55:59;;;;;;;17.65;8.43;;;10.70;99.90;;;;;;5127979;27;20301;-74
2023/03/13 04:58:43;;;;;;;14.63;7.68;;;10.70;99.90;;;;;;5097282;28;20354;-74
2023/03/13 05:01:44;;;;;;;12.90;8.07;;;10.80;99.90;;;;;;5048683;28;20282;-74
2023/03/13 05:04:15;;;;;;;11.48;8.00;;;10.80;99.90;;;;;;5071950;28;20197;-76
2023/03/13 05:07:14;;;;;;;12.20;7.55;;;10.90;99.90;;;;;;5082210;27;20230;-74
2023/03/13 05:09:55;;;;;;;15.43;7.57;;;10.90;99.90;;;;;;5096101;28;20562;-74
2023/03/13 05:12:38;;;;;;;12.52;7.40;;;11.00;99.90;;;;;;5096763;27;20208;-74
2023/03/13 05:15:35;;;;;;;12.10;7.07;;;11.00;99.90;;;;;;5092234;28;20213;-75
2023/03/13 05:18:22;;;;;;;14.00;7.70;;;11.00;99.90;;;;;;5060495;28;20198;-74
2023/03/13 05:21:01;;;;;;;19.20;8.27;;;11.10;99.90;;;;;;5096378;28;20188;-75
2023/03/13 05:23:29;;;;;;;15.45;7.53;;;11.20;99.90;;;;;;5113065;28;20710;-74
2023/03/13 05:26:01;;;;;;;17.25;7.53;;;11.20;99.90;;;;;;5092174;28;20185;-74
2023/03/13 05:28:40;;;;;;;14.80;7.22;;;11.30;99.90;;;;;;5093468;28;20636;-75
2023/03/13 05:31:24;;;;;;;11.82;7.15;;;11.40;99.90;;;;;;5119259;27;20295;-75
2023/03/13 05:34:09;;;;;;;12.82;6.38;;;11.40;99.90;;;;;;5060767;28;20177;-75
2023/03/13 05:37:13;;;;;;;11.18;5.32;;;11.50;99.90;;;;;;4995159;28;20197;-74
2023/03/13 05:40:11;;;;;;;8.77;4.90;;;11.50;99.90;;;;;;4994147;28;20196;-74
2023/03/13 05:43:04;;;;;;;17.17;5.30;;;11.60;99.90;;;;;;5070119;28;20549;-74
2023/03/13 05:45:55;;;;;;;13.63;5.10;;;11.60;99.90;;;;;;5108464;28;20189;-75
2023/03/13 05:48:45;;;;;;;12.38;5.20;;;11.70;99.90;;;;;;5074541;28;20198;-75
2023/03/13 05:51:26;;;;;;;13.88;4.93;;;11.70;99.90;;;;;;5087831;28;20236;-75
2023/03/13 05:54:21;;;;;;;9.45;4.95;;;11.70;99.90;;;;;;5047257;28;20234;-75
2023/03/13 05:57:10;;;;;;;11.68;5.55;;;11.70;99.90;;;;;;5120458;28;20379;-74
2023/03/13 05:59:56;;;;;;;14.00;5.20;;;11.80;99.90;;;;;;5066125;28;20243;-76
2023/03/13 06:02:47;;;;;;;12.95;4.95;;;11.80;99.90;;;;;;5110370;28;20600;-75
2023/03/13 06:05:18;;;;;;;17.67;4.93;;;11.80;99.90;;;;;;5066844;28;20542;-75
2023/03/13 06:07:45;;;;;;;16.92;5.90;;;11.80;99.90;;;;;;5072215;28;20185;-74
2023/03/13 06:10:11;;;;;;;14.52;5.05;;;11.80;99.90;;;;;;5111994;28;20271;-75
2023/03/13 06:12:37;;;;;;;16.17;5.65;;;11.90;99.90;;;;;;5076764;28;20191;-74
2023/03/13 06:15:06;;;;;;;11.50;4.55;;;11.80;99.90;;;;;;5068605;28;20182;-74
2023/03/13 06:17:50;;;;;;;14.07;4.78;;;11.90;99.90;;;;;;5100604;28;20237;-75
2023/03/13 06:20:16;;;;;;;15.32;5.40;;;11.90;99.90;;;;;;5132965;28;20181;-74
2023/03/13 06:22:42;;;;;;;13.30;5.25;;;11.90;99.90;;;;;;5094472;28;20192;-76
2023/03/13 06:25:09;;;;;;;16.52;5.57;;;11.90;99.90;;;;;;5109365;28;20181;-74
2023/03/13 06:27:34;;;;;;;15.98;5.53;;;11.90;99.90;;;;;;5107690;28;20181;-73
2023/03/13 06:30:00;;;;;;;14.50;4.95;;;11.90;99.90;;;;;;5089611;28;20224;-74
2023/03/13 06:32:27;;;;;;;15.45;5.40;;;11.90;99.90;;;;;;5092203;28;20499;-73
2023/03/13 06:34:52;;;;;;;17.73;6.05;;;11.90;99.90;;;;;;5105213;28;20578;-73
2023/03/13 06:37:18;;;;;;;11.82;5.57;;;11.90;99.90;;;;;;5093290;28;20193;-73
2023/03/13 06:39:44;;;;;;;19.20;6.50;;;11.90;99.90;;;;;;5109352;28;20648;-73
2023/03/13 06:42:10;;;;;;;14.40;6.38;;;11.90;99.90;;;;;;5092994;28;20214;-73
2023/03/13 06:44:35;;;;;;;16.52;6.28;;;11.90;99.90;;;;;;5128085;28;20263;-75
2023/03/13 06:47:01;;;;;;;16.73;6.95;;;11.90;99.90;;;;;;5117727;28;20572;-73
2023/03/13 06:49:27;;;;;;;17.60;7.35;;;12.00;99.90;;;;;;5095506;28;20169;-73
2023/03/13 06:51:55;;;;;;;20.70;7.20;;;12.00;99.90;;;;;;5096732;28;20209;-74
2023/03/13 06:54:21;;;;;;;15.20;6.47;;;12.00;99.90;;;;;;5115423;28;20180;-75
2023/03/13 06:56:47;;;;;;;27.25;12.45;;;12.00;99.90;;;;;;5114423;28;20185;-73
2023/03/13 06:59:13;;;;;;;20.48;7.15;;;12.00;99.90;;;;;;5114341;28;20221;-73
2023/03/13 07:01:38;;;;;;;19.52;6.45;;;12.00;99.90;;;;;;5112475;28;20238;-76
2023/03/13 07:04:04;;;;;;;17.85;6.75;;;12.00;99.90;;;;;;5114843;28;20629;-75
2023/03/13 07:06:30;;;;;;;20.88;7.90;;;12.10;99.90;;;;;;5072031;28;20327;-75
2023/03/13 07:08:55;;;;;;;12.05;5.97;;;12.10;99.90;;;;;;5096511;28;20177;-74
2023/03/13 07:11:21;;;;;;;20.52;6.90;;;12.10;99.90;;;;;;5118410;27;20615;-75
2023/03/13 07:13:47;;;;;;;21.05;6.63;;;12.20;99.90;;;;;;5091296;28;20654;-74
2023/03/13 07:16:13;;;;;;;21.02;6.60;;;12.20;99.90;;;;;;5095165;27;20629;-74
2023/03/13 07:18:43;;;;;;;16.92;5.90;;;12.20;99.90;;;;;;5123302;27;20268;-74
2023/03/13 07:21:09;;;;;;;19.17;6.82;;;12.20;99.90;;;;;;5077990;28;20326;-74
2023/03/13 07:23:35;;;;;;;16.80;5.78;;;12.20;99.90;;;;;;5097683;28;20181;-74
2023/03/13 07:26:07;;;;;;;15.38;6.05;;;12.20;99.90;;;;;;5116408;27;20651;-74
2023/03/13 07:28:33;;;;;;;15.38;5.97;;;12.20;99.90;;;;;;5135724;27;20156;-75
2023/03/13 07:31:03;;;;;;;11.90;5.60;;;12.30;99.90;;;;;;5112567;27;20291;-74
2023/03/13 07:33:29;;;;;;;16.10;6.13;;;12.30;99.90;;;;;;5094265;28;20199;-74
2023/03/13 07:35:55;;;;;;;15.57;5.22;;;12.30;99.90;;;;;;5114987;27;20523;-74
2023/03/13 07:38:21;;;;;;;20.15;5.13;;;12.30;99.90;;;;;;5135676;27;20187;-74
2023/03/13 07:40:48;;;;;;;14.85;5.43;;;12.30;99.90;;;;;;5130313;27;20328;-75
2023/03/13 07:43:14;;;;;;;16.98;5.68;;;12.30;99.90;;;;;;5110908;28;20185;-74
2023/03/13 07:45:58;;;;;;;19.35;5.10;;;12.30;99.90;;;;;;5106996;27;20206;-74
2023/03/13 07:48:28;;;;;;;17.52;5.68;;;12.30;99.90;;;;;;5115374;28;20650;-74
2023/03/13 07:50:55;;;;;;;15.88;5.82;;;12.30;99.90;;;;;;5112382;28;20213;-73
2023/03/13 07:53:21;;;;;;;16.48;5.57;;;12.30;99.90;;;;;;5124612;27;20818;-75
2023/03/13 07:55:54;;;;;;;14.18;5.43;;;12.30;99.90;;;;;;5095175;28;20242;-73
2023/03/13 07:58:19;;;;;;;16.33;4.93;;;12.30;99.90;;;;;;5114925;28;20220;-74
2023/03/13 08:00:45;;;;;;;15.88;4.68;;;12.30;99.90;;;;;;5077271;27;20955;-73
2023/03/13 08:03:11;;;;;;;13.13;4.90;;;12.20;99.90;;;;;;5073577;28;20258;-75
2023/03/13 08:05:37;;;;;;;10.35;4.30;;;12.20;99.90;;;;;;5101523;27;20191;-73
2023/03/13 08:08:03;;;;;;;15.02;4.47;;;12.20;99.90;;;;;;5114598;27;20291;-76
2023/03/13 08:10:30;;;;;;;12.32;4.45;;;12.20;99.90;;;;;;5114049;27;20690;-74
2023/03/13 08:12:56;;;;;;;11.43;3.80;;;12.30;99.90;;;;;;5103618;28;20186;-74
2023/03/13 08:15:24;;;;;;;12.57;4.20;;;12.20;99.90;;;;;;5115251;27;20193;-73
2023/03/13 08:17:51;;;;;;;14.60;4.45;;;12.30;99.90;;;;;;5124009;27;20184;-74
2023/03/13 08:20:17;;;;;;;13.95;4.03;;;12.30;99.90;;;;;;5114478;28;20181;-74
2023/03/13 08:22:45;;;;;;;11.27;3.08;;;12.30;99.90;;;;;;5104523;28;20315;-74
2023/03/13 08:25:12;;;;;;;8.20;3.20;;;12.30;99.90;;;;;;5113788;28;20188;-74
2023/03/13 08:27:38;;;;;;;7.00;2.90;;;12.30;99.90;;;;;;5112636;28;20173;-74
2023/03/13 08:30:04;;;;;;;10.65;3.15;;;12.30;99.90;;;;;;5077249;28;20216;-74
2023/03/13 08:32:34;;;;;;;10.95;3.47;;;12.40;99.90;;;;;;5075008;28;20247;-76
2023/03/13 08:35:00;;;;;;;10.68;3.30;;;12.50;99.90;;;;;;5112434;28;20181;-74
2023/03/13 08:37:25;;;;;;;9.88;2.70;;;12.60;99.90;;;;;;5109929;27;20590;-74
2023/03/13 08:39:55;;;;;;;7.18;2.83;;;12.70;99.90;;;;;;5099504;28;20581;-74
2023/03/13 08:42:21;;;;;;;8.52;2.90;;;12.90;99.90;;;;;;5099174;27;20180;-74
2023/03/13 08:44:47;;;;;;;8.93;2.70;;;13.20;99.90;;;;;;5112602;28;20246;-74
2023/03/13 08:47:13;;;;;;;7.38;2.53;;;13.40;99.90;;;;;;5125177;27;20564;-75
2023/03/13 08:49:39;;;;;;;6.55;2.35;;;13.80;99.90;;;;;;5127240;27;20186;-75
2023/03/13 08:52:05;;;;;;;10.43;2.33;;;14.20;99.90;;;;;;5124216;27;20195;-75
2023/03/13 08:54:32;;;;;;;7.03;2.08;;;14.60;99.90;;;;;;5134133;27;20260;-73
2023/03/13 08:57:01;;;;;;;5.68;1.70;;;14.90;99.90;;;;;;5113202;27;20195;-74
2023/03/13 08:59:27;;;;;;;7.60;2.38;;;15.20;99.90;;;;;;5115548;27;20210;-74
2023/03/13 09:01:52;;;;;;;5.88;1.95;;;15.40;99.90;;;;;;5095693;28;20193;-74
2023/03/13 09:04:19;;;;;;;8.60;1.92;;;15.50;99.90;;;;;;5111436;28;20193;-74
2023/03/13 09:06:45;;;;;;;5.35;1.80;;;15.70;99.90;;;;;;5102607;27;20188;-74
2023/03/13 09:09:12;;;;;;;7.28;1.95;;;15.80;99.90;;;;;;5098517;28;20185;-74
2023/03/13 09:11:38;;;;;;;6.45;1.65;;;16.00;99.90;;;;;;5111246;28;20205;-74
2023/03/13 09:14:05;;;;;;;4.78;1.70;;;16.20;99.90;;;;;;5093254;28;20488;-74
2023/03/13 09:16:32;;;;;;;7.15;1.92;;;16.30;99.90;;;;;;5109372;28;20177;-74
2023/03/13 09:18:58;;;;;;;5.78;1.67;;;16.10;99.90;;;;;;5113464;28;20173;-73
2023/03/13 09:21:30;;;;;;;4.97;1.65;;;15.90;99.90;;;;;;5118183;27;20257;-73
2023/03/13 09:23:57;;;;;;;6.25;1.73;;;15.50;99.90;;;;;;5113162;27;20608;-73
2023/03/13 09:26:23;;;;;;;8.95;2.10;;;15.30;99.90;;;;;;5099484;27;20184;-74
2023/03/13 09:28:50;;;;;;;9.20;1.98;;;15.10;99.90;;;;;;5121471;27;20207;-79
2023/03/13 09:31:22;;;;;;;8.60;1.98;;;14.90;99.90;;;;;;5110573;28;20530;-74
2023/03/13 09:33:49;;;;;;;12.48;2.55;;;14.80;99.90;;;;;;5100945;28;20185;-75
2023/03/13 09:36:16;;;;;;;13.38;2.80;;;14.60;99.90;;;;;;5080844;28;20216;-74
2023/03/13 09:38:43;;;;;;;12.93;2.85;;;14.50;99.90;;;;;;5131376;27;20184;-75
2023/03/13 09:41:33;;;;;;;9.32;2.40;;;14.40;99.90;;;;;;5117580;27;20203;-74
2023/03/13 09:44:02;;;;;;;13.48;2.70;;;14.20;99.90;;;;;;5098430;28;20188;-74
2023/03/13 09:46:35;;;;;;;11.70;2.80;;;14.10;99.90;;;;;;5105781;28;20173;-80
2023/03/13 09:49:29;;;;;;;9.48;2.90;;;14.10;99.90;;;;;;5094718;28;20213;-74
2023/03/13 09:52:12;;;;;;;11.45;2.70;;;14.00;99.90;;;;;;5094349;28;20225;-74
2023/03/13 09:55:04;;;;;;;12.30;3.00;;;14.00;99.90;;;;;;5111790;28;20215;-74
2023/03/13 09:57:53;;;;;;;15.65;3.42;;;13.90;99.90;;;;;;5126575;28;20738;-74
2023/03/13 10:00:27;;;;;;;10.27;2.72;;;13.90;99.90;;;;;;5128780;28;20181;-77
2023/03/13 10:03:16;;;;;;;14.77;3.00;;;13.90;99.90;;;;;;5110511;28;20176;-75
2023/03/13 10:05:56;;;;;;;16.25;3.83;;;13.90;99.90;;;;;;5075104;28;20175;-75
2023/03/13 10:08:27;;;;;;;12.30;2.65;;;14.20;99.90;;;;;;5112634;28;20169;-74
2023/03/13 10:11:20;;;;;;;10.52;2.38;;;14.50;99.90;;;;;;5103644;28;20293;-81
2023/03/13 10:14:10;;;;;;;13.75;3.13;;;14.90;99.90;;;;;;5092254;28;20193;-75
2023/03/13 10:16:58;;;;;;;11.20;2.90;;;15.50;99.90;;;;;;5119980;28;20280;-75
2023/03/13 10:19:41;;;;;;;16.02;3.33;;;16.10;99.90;;;;;;5092750;28;20170;-75
2023/03/13 10:22:17;;;;;;;14.45;3.05;;;16.60;99.90;;;;;;5103054;28;20185;-75
2023/03/13 10:25:08;;;;;;;16.00;3.53;;;16.90;99.90;;;;;;5116311;28;20161;-75
2023/03/13 10:27:47;;;;;;;15.70;3.10;;;17.20;99.90;;;;;;5130420;27;20645;-76
2023/03/13 10:30:23;;;;;;;18.27;4.30;;;17.30;99.90;;;;;;5118438;27;20279;-76
2023/03/13 10:32:49;;;;;;;12.20;3.22;;;17.30;99.90;;;;;;5124110;27;20184;-74
2023/03/13 10:35:24;;;;;;;16.00;2.85;;;17.20;99.90;;;;;;5099872;28;20190;-74
2023/03/13 10:38:03;;;;;;;11.35;3.13;;;17.10;99.90;;;;;;5096874;28;20180;-74
2023/03/13 10:40:29;;;;;;;15.80;3.15;;;17.00;99.90;;;;;;5097019;28;20178;-78
2023/03/13 10:43:15;;;;;;;19.60;3.60;;;16.90;99.90;;;;;;5095711;28;20540;-77
2023/03/13 10:45:41;;;;;;;16.33;3.30;;;16.80;99.90;;;;;;5114177;28;20655;-74
2023/03/13 10:48:18;;;;;;;19.13;3.53;;;16.80;99.90;;;;;;5097807;28;20174;-74
2023/03/13 10:50:46;;;;;;;13.95;2.83;;;16.70;99.90;;;;;;5114323;28;20655;-74
2023/03/13 10:53:30;;;;;;;19.02;3.35;;;16.60;99.90;;;;;;5115328;28;20193;-77
2023/03/13 10:56:10;;;;;;;14.90;3.08;;;16.40;99.90;;;;;;5101384;28;20614;-73
2023/03/13 10:58:52;;;;;;;17.08;3.60;;;16.20;99.90;;;;;;5116097;28;20212;-75
2023/03/13 11:01:21;;;;;;;18.58;3.85;;;16.00;99.90;;;;;;5113518;28;20294;-74
2023/03/13 11:03:49;;;;;;;25.30;3.28;;;15.90;99.90;;;;;;5128274;27;20285;-75
2023/03/13 11:06:26;;;;;;;19.00;3.60;;;15.90;99.90;;;;;;5088270;28;20227;-74
2023/03/13 11:09:18;;;;;;;18.17;3.38;;;16.00;99.90;;;;;;5077534;28;20273;-74
2023/03/13 11:11:51;;;;;;;14.95;3.13;;;16.00;99.90;;;;;;5101118;28;20229;-74
2023/03/13 11:14:22;;;;;;;15.18;3.15;;;15.80;99.90;;;;;;5122823;27;20216;-74
2023/03/13 11:17:07;;;;;;;18.17;3.47;;;15.70;99.90;;;;;;5112403;27;20181;-74
2023/03/13 11:19:56;;;;;;;16.10;3.33;;;15.70;99.90;;;;;;5114873;28;20232;-74
2023/03/13 11:22:33;;;;;;;13.60;3.13;;;15.70;99.90;;;;;;5117540;27;20185;-74
2023/03/13 11:25:14;;;;;;;18.33;3.13;;;15.80;99.90;;;;;;5102984;28;20273;-74
2023/03/13 11:27:53;;;;;;;17.25;3.28;;;15.80;99.90;;;;;;5097314;28;20173;-74
2023/03/13 11:30:48;;;;;;;12.52;3.28;;;15.80;99.90;;;;;;5114618;28;20326;-74
2023/03/13 11:33:46;;;;;;;20.88;3.55;;;15.70;99.90;;;;;;5071263;28;20193;-75
2023/03/13 11:36:33;;;;;;;12.27;2.72;;;15.70;99.90;;;;;;5087825;28;20544;-77
2023/03/13 11:39:20;;;;;;;15.23;2.80;;;15.60;99.90;;;;;;5102481;28;20213;-76
2023/03/13 11:42:00;;;;;;;12.23;2.50;;;15.50;99.90;;;;;;5078930;28;20181;-82
2023/03/13 11:55:48;;;;;;;11.13;3.05;;;15.40;99.90;;;;;;4933106;29;20214;-76
2023/03/13 11:58:36;;;;;;;13.18;2.80;;;15.30;99.90;;;;;;4936029;29;20179;-81
2023/03/13 12:01:11;;;;;;;11.85;2.80;;;15.30;99.90;;;;;;4937129;29;20191;-75
2023/03/13 12:03:48;;;;;;;11.00;2.70;;;15.30;99.90;;;;;;4937339;29;20167;-75
2023/03/13 12:06:27;;;;;;;13.30;3.10;;;15.30;99.90;;;;;;4937515;29;20199;-73
2023/03/13 12:09:03;;;;;;;11.75;3.00;;;15.30;99.90;;;;;;4937568;29;20238;-75
2023/03/13 12:12:03;;;;;;;19.77;3.40;;;15.30;99.90;;;;;;4936981;29;20315;-74
2023/03/13 12:14:59;;;;;;;13.68;2.83;;;15.30;99.90;;;;;;4936538;29;20210;-74
2023/03/13 12:18:04;;;;;;;16.77;2.97;;;15.30;99.90;;;;;;4936883;29;20200;-73
2023/03/13 12:20:48;;;;;;;15.60;2.78;;;15.40;99.90;;;;;;4936777;29;20175;-74
2023/03/13 12:23:30;;;;;;;7.97;2.55;;;15.40;99.90;;;;;;4936144;29;20164;-75
2023/03/13 12:26:06;;;;;;;19.50;3.35;;;15.40;99.90;;;;;;4937834;29;20187;-78
2023/03/13 12:28:59;;;;;;;13.48;2.83;;;15.50;99.90;;;;;;4936844;29;20164;-75
2023/03/13 12:31:47;;;;;;;22.20;3.65;;;15.50;99.90;;;;;;4936806;29;20195;-74
2023/03/13 12:34:19;;;;;;;20.15;3.67;;;15.60;99.90;;;;;;4937315;29;20175;-74
2023/03/13 12:37:17;;;;;;;17.52;3.50;;;15.60;99.90;;;;;;4936931;29;20179;-74
2023/03/13 12:39:50;;;;;;;17.27;3.13;;;15.70;99.90;;;;;;4936834;29;20611;-73
2023/03/13 12:42:43;;;;;;;16.35;3.30;;;15.80;99.90;;;;;;4936464;29;20599;-74
2023/03/13 12:45:18;;;;;;;15.15;3.10;;;15.80;99.90;;;;;;4936492;29;20178;-74
2023/03/13 12:47:59;;;;;;;22.83;3.60;;;15.90;99.90;;;;;;4936434;29;20160;-74
2023/03/13 12:50:50;;;;;;;12.50;2.95;;;16.10;99.90;;;;;;4936393;28;20213;-74
2023/03/13 12:53:37;;;;;;;17.33;3.63;;;16.20;99.90;;;;;;4936620;29;20665;-73
2023/03/13 12:56:25;;;;;;;17.55;3.25;;;16.30;99.90;;;;;;4936617;29;20702;-75
2023/03/13 12:58:56;;;;;;;15.32;3.15;;;16.30;99.90;;;;;;4935451;29;20190;-76
2023/03/13 13:01:46;;;;;;;16.48;3.83;;;16.40;99.90;;;;;;4937085;29;20219;-75
2023/03/13 13:04:16;;;;;;;17.92;3.70;;;16.40;99.90;;;;;;4936579;29;20164;-75
2023/03/13 13:07:02;;;;;;;16.67;3.58;;;16.40;99.90;;;;;;4936560;29;20178;-75
2023/03/13 13:09:35;;;;;;;20.48;3.30;;;16.40;99.90;;;;;;4934935;29;20536;-75
2023/03/13 13:12:22;;;;;;;21.38;3.80;;;16.50;99.90;;;;;;4935918;29;20214;-74
2023/03/13 13:14:47;;;;;;;24.25;4.05;;;16.50;99.90;;;;;;4935807;29;20230;-74
2023/03/13 13:17:33;;;;;;;21.88;3.90;;;16.50;99.90;;;;;;4936093;29;20270;-74
2023/03/13 13:20:30;;;;;;;21.42;4.10;;;16.50;99.90;;;;;;4936406;29;20528;-74
2023/03/13 13:23:16;;;;;;;16.80;3.45;;;16.50;99.90;;;;;;4936299;29;20611;-74
2023/03/13 13:25:42;;;;;;;17.30;3.53;;;16.60;99.90;;;;;;4934550;29;20183;-80